Time;durP1;ratioP1;P1;durP2;ratioP2;P2;SDS_P1;SDS_P2;PMS_P1;PMS_P2;Temp;Humidity;BMP_temperature;BMP_pressure;BME280_temperature;BME280_humidity;BME280_pressure;Samples;Min_cycle;Max_cycle;Signal;HPM_P1;HPM_P2
2023/06/17 00:00:32;;;;;;;3.13;2.30;;;14.90;99.90;;;;;;5111877;28;20478;-47
2023/06/17 00:02:59;;;;;;;4.60;2.90;;;14.90;99.90;;;;;;5110148;28;20480;-48
2023/06/17 00:05:26;;;;;;;4.10;2.67;;;14.80;99.90;;;;;;5111060;28;20476;-48
2023/06/17 00:07:53;;;;;;;4.07;2.40;;;14.80;99.90;;;;;;5111214;28;20881;-47
2023/06/17 00:10:20;;;;;;;3.93;2.30;;;14.80;99.90;;;;;;5111505;28;20492;-47
2023/06/17 00:12:48;;;;;;;3.63;2.70;;;14.80;99.90;;;;;;5108503;28;20525;-49
2023/06/17 00:15:16;;;;;;;5.17;3.20;;;14.80;99.90;;;;;;5112277;28;20481;-47
2023/06/17 00:17:46;;;;;;;4.50;3.00;;;14.70;99.90;;;;;;5114987;28;20458;-47
2023/06/17 00:20:14;;;;;;;6.23;2.50;;;14.60;99.90;;;;;;5115539;28;20569;-49
2023/06/17 00:22:43;;;;;;;3.50;2.30;;;14.60;99.90;;;;;;5115604;28;20478;-49
2023/06/17 00:25:11;;;;;;;3.53;2.23;;;14.60;99.90;;;;;;5115264;28;20439;-46
2023/06/17 00:27:38;;;;;;;4.47;2.70;;;14.60;99.90;;;;;;5111943;28;20478;-48
2023/06/17 00:30:07;;;;;;;3.43;2.50;;;14.60;99.90;;;;;;5113435;28;20448;-48
2023/06/17 00:32:34;;;;;;;4.17;3.20;;;14.50;99.90;;;;;;5115177;28;20453;-47
2023/06/17 00:35:03;;;;;;;3.70;2.40;;;14.50;99.90;;;;;;5114963;28;21028;-47
2023/06/17 00:37:30;;;;;;;3.10;2.37;;;14.50;99.90;;;;;;5115085;28;20478;-48
2023/06/17 00:39:57;;;;;;;3.77;2.30;;;14.50;99.90;;;;;;5115264;28;20554;-47
2023/06/17 00:42:24;;;;;;;4.50;2.60;;;14.50;99.90;;;;;;5113964;28;20463;-47
2023/06/17 00:44:51;;;;;;;4.20;2.83;;;14.40;99.90;;;;;;5115141;28;20443;-47
2023/06/17 00:47:18;;;;;;;3.80;2.70;;;14.40;99.90;;;;;;5115113;28;20472;-48
2023/06/17 00:49:46;;;;;;;3.30;2.43;;;14.40;99.90;;;;;;5114979;28;20466;-47
2023/06/17 00:52:15;;;;;;;3.20;2.33;;;14.40;99.90;;;;;;5115561;28;20462;-48
2023/06/17 00:54:43;;;;;;;3.80;2.90;;;14.40;99.90;;;;;;5114303;28;20942;-48
2023/06/17 00:57:13;;;;;;;5.30;3.43;;;14.30;99.90;;;;;;5113355;28;20521;-47
2023/06/17 00:59:41;;;;;;;3.80;2.23;;;14.30;99.90;;;;;;5114522;28;20967;-47
2023/06/17 01:02:09;;;;;;;3.87;2.77;;;14.30;99.90;;;;;;5112961;28;20561;-47
2023/06/17 01:04:38;;;;;;;3.87;2.50;;;14.40;99.90;;;;;;5115117;28;20603;-47
2023/06/17 01:07:23;;;;;;;3.40;2.47;;;14.40;99.90;;;;;;5114494;28;20463;-48
2023/06/17 01:09:57;;;;;;;3.53;2.60;;;14.30;99.90;;;;;;5114952;28;20895;-48
2023/06/17 01:12:27;;;;;;;3.60;2.47;;;14.10;99.90;;;;;;5114889;28;20434;-47
2023/06/17 01:14:57;;;;;;;4.00;3.03;;;13.80;99.90;;;;;;5114279;28;20817;-47
2023/06/17 01:17:25;;;;;;;4.40;2.70;;;13.70;99.90;;;;;;5114426;28;20443;-47
2023/06/17 01:19:54;;;;;;;4.57;2.70;;;13.80;99.90;;;;;;5114537;28;20466;-47
2023/06/17 01:22:22;;;;;;;3.60;3.00;;;13.90;99.90;;;;;;5114582;28;20467;-48
2023/06/17 01:24:51;;;;;;;3.37;2.30;;;13.90;99.90;;;;;;5113952;28;20517;-48
2023/06/17 01:27:18;;;;;;;5.10;3.10;;;14.00;99.90;;;;;;5112365;28;20522;-47
2023/06/17 01:29:48;;;;;;;4.07;2.80;;;14.10;99.90;;;;;;5114481;28;20625;-47
2023/06/17 01:32:15;;;;;;;3.67;2.70;;;14.00;99.90;;;;;;5114455;28;20481;-47
2023/06/17 01:34:48;;;;;;;5.50;3.50;;;13.90;99.90;;;;;;5113844;28;20536;-47
2023/06/17 01:37:21;;;;;;;3.20;2.00;;;14.10;99.90;;;;;;5114317;28;20459;-47
2023/06/17 01:39:50;;;;;;;4.30;2.60;;;14.20;99.90;;;;;;5114134;28;20494;-50
2023/06/17 01:42:26;;;;;;;4.17;3.07;;;14.00;99.90;;;;;;5113874;28;21022;-48
2023/06/17 01:44:55;;;;;;;3.10;2.13;;;13.90;99.90;;;;;;5113829;28;20474;-48
2023/06/17 01:47:22;;;;;;;4.20;2.63;;;13.70;99.90;;;;;;5113607;28;20515;-47
2023/06/17 01:49:49;;;;;;;5.00;3.20;;;13.70;99.90;;;;;;5114242;28;20495;-47
2023/06/17 01:52:16;;;;;;;3.87;2.83;;;13.80;99.90;;;;;;5113840;28;21026;-47
2023/06/17 01:54:43;;;;;;;8.70;3.93;;;13.80;99.90;;;;;;5113731;28;20541;-48
2023/06/17 01:57:11;;;;;;;3.80;2.80;;;13.80;99.90;;;;;;5112099;28;20477;-47
2023/06/17 01:59:39;;;;;;;4.27;2.50;;;13.90;99.90;;;;;;5113670;28;20941;-47
2023/06/17 02:02:06;;;;;;;4.07;2.73;;;14.10;99.90;;;;;;5111942;28;20514;-47
2023/06/17 02:04:33;;;;;;;3.73;2.93;;;14.10;99.90;;;;;;5113776;28;20443;-47
2023/06/17 02:07:00;;;;;;;4.10;2.97;;;14.10;99.90;;;;;;5113272;28;20530;-49
2023/06/17 02:09:26;;;;;;;3.23;2.43;;;14.10;99.90;;;;;;5113173;28;20470;-47
2023/06/17 02:11:53;;;;;;;5.10;2.67;;;14.20;99.90;;;;;;5113229;28;20518;-50
2023/06/17 02:14:20;;;;;;;6.07;2.77;;;14.30;99.90;;;;;;5113513;28;20533;-48
2023/06/17 02:16:49;;;;;;;5.23;3.20;;;14.30;99.90;;;;;;5112778;28;20959;-47
2023/06/17 02:19:16;;;;;;;4.80;3.47;;;14.20;99.90;;;;;;5113234;28;20479;-47
2023/06/17 02:21:44;;;;;;;4.57;2.60;;;14.10;99.90;;;;;;5113451;28;20475;-47
2023/06/17 02:24:11;;;;;;;5.50;3.70;;;14.10;99.90;;;;;;5113361;28;20531;-47
2023/06/17 02:26:39;;;;;;;4.40;3.13;;;13.90;99.90;;;;;;5112724;28;20538;-47
2023/06/17 02:29:06;;;;;;;4.97;3.00;;;13.80;99.90;;;;;;5112836;28;21004;-47
2023/06/17 02:31:33;;;;;;;4.43;2.93;;;13.70;99.90;;;;;;5113192;28;20521;-48
2023/06/17 02:34:02;;;;;;;4.00;2.50;;;13.50;99.90;;;;;;5113598;28;20635;-47
2023/06/17 02:36:29;;;;;;;5.93;3.60;;;13.40;99.90;;;;;;5112723;28;20981;-48
2023/06/17 02:38:59;;;;;;;4.67;3.60;;;13.30;99.90;;;;;;5111697;28;20451;-47
2023/06/17 02:41:26;;;;;;;4.07;3.10;;;13.30;99.90;;;;;;5112661;28;20558;-47
2023/06/17 02:43:53;;;;;;;4.00;3.33;;;13.30;99.90;;;;;;5112760;28;20497;-50
2023/06/17 02:46:20;;;;;;;4.90;3.20;;;13.30;99.90;;;;;;5112421;28;20885;-47
2023/06/17 02:48:47;;;;;;;4.40;3.30;;;13.30;99.90;;;;;;5112666;28;20495;-47
2023/06/17 02:51:15;;;;;;;5.60;4.03;;;13.20;99.90;;;;;;5112683;28;20491;-47
2023/06/17 02:53:42;;;;;;;4.17;3.43;;;13.20;99.90;;;;;;5113106;28;20445;-48
2023/06/17 02:56:09;;;;;;;4.20;2.93;;;13.20;99.90;;;;;;5110576;28;20538;-47
2023/06/17 02:58:36;;;;;;;5.17;3.07;;;13.30;99.90;;;;;;5112517;28;20434;-48
2023/06/17 03:01:05;;;;;;;3.80;3.10;;;13.50;99.90;;;;;;5112377;28;20559;-46
2023/06/17 03:03:34;;;;;;;4.00;2.83;;;13.50;99.90;;;;;;5110895;28;20446;-50
2023/06/17 03:06:03;;;;;;;4.37;3.43;;;13.50;99.90;;;;;;5111843;28;20451;-47
2023/06/17 03:08:32;;;;;;;5.07;3.27;;;13.40;99.90;;;;;;5112488;28;20457;-47
2023/06/17 03:10:59;;;;;;;5.20;3.57;;;13.50;99.90;;;;;;5112373;28;20451;-46
2023/06/17 03:13:26;;;;;;;4.40;3.00;;;13.50;99.90;;;;;;5112491;28;20533;-47
2023/06/17 03:15:54;;;;;;;5.50;3.90;;;13.50;99.90;;;;;;5112326;28;21029;-47
2023/06/17 03:18:21;;;;;;;4.10;2.93;;;13.50;99.90;;;;;;5111824;28;20447;-47
2023/06/17 03:20:49;;;;;;;4.93;3.10;;;13.50;99.90;;;;;;5112088;28;20996;-50
2023/06/17 03:23:16;;;;;;;4.83;3.00;;;13.50;99.90;;;;;;5112088;28;20893;-47
2023/06/17 03:25:45;;;;;;;4.70;3.23;;;13.50;99.90;;;;;;5111649;28;20485;-50
2023/06/17 03:28:12;;;;;;;4.77;2.90;;;13.30;99.90;;;;;;5110130;28;20449;-48
2023/06/17 03:30:40;;;;;;;5.30;3.50;;;13.10;99.90;;;;;;5111948;28;20458;-48
2023/06/17 03:33:07;;;;;;;4.77;3.30;;;13.00;99.90;;;;;;5112147;28;20441;-47
2023/06/17 03:35:34;;;;;;;4.40;2.83;;;12.90;99.90;;;;;;5111628;28;21260;-47
2023/06/17 03:38:02;;;;;;;4.43;3.47;;;12.90;99.90;;;;;;5111869;28;20442;-47
2023/06/17 03:40:29;;;;;;;4.83;3.30;;;12.90;99.90;;;;;;5111629;28;20475;-47
2023/06/17 03:42:57;;;;;;;4.70;3.83;;;13.00;99.90;;;;;;5111600;28;21009;-47
2023/06/17 03:45:24;;;;;;;5.33;2.87;;;13.00;99.90;;;;;;5111359;28;20530;-50
2023/06/17 03:47:51;;;;;;;5.20;4.20;;;13.20;99.90;;;;;;5111387;28;20492;-47
2023/06/17 03:50:18;;;;;;;5.73;3.40;;;13.10;99.90;;;;;;5111423;28;21036;-47
2023/06/17 03:52:44;;;;;;;4.80;3.40;;;12.90;99.90;;;;;;5112011;28;20526;-48
2023/06/17 03:55:11;;;;;;;4.70;3.23;;;12.90;99.90;;;;;;5111194;28;20525;-47
2023/06/17 03:57:38;;;;;;;5.30;3.40;;;13.00;99.90;;;;;;5109378;28;20964;-50
2023/06/17 04:00:08;;;;;;;4.37;3.10;;;13.00;99.90;;;;;;5111852;28;20569;-47
2023/06/17 04:02:35;;;;;;;4.43;3.80;;;13.00;99.90;;;;;;5109909;28;20511;-47
2023/06/17 04:05:02;;;;;;;4.30;3.87;;;13.00;99.90;;;;;;5111154;28;20539;-47
2023/06/17 04:07:29;;;;;;;4.80;4.30;;;13.10;99.90;;;;;;5111383;28;20449;-50
2023/06/17 04:09:56;;;;;;;3.60;2.93;;;13.20;99.90;;;;;;5111504;28;20831;-47
2023/06/17 04:12:23;;;;;;;5.30;3.30;;;13.30;99.90;;;;;;5111565;28;20439;-50
2023/06/17 04:14:50;;;;;;;4.50;2.87;;;13.30;99.90;;;;;;5111427;28;20434;-47
2023/06/17 04:17:19;;;;;;;5.83;4.00;;;13.40;99.90;;;;;;5111529;28;20474;-49
2023/06/17 04:19:46;;;;;;;7.70;4.00;;;13.40;99.90;;;;;;5111190;28;20973;-47
2023/06/17 04:22:13;;;;;;;6.00;4.10;;;13.40;99.90;;;;;;5111390;28;20497;-47
2023/06/17 04:24:40;;;;;;;5.00;3.70;;;13.40;99.90;;;;;;5110915;28;20446;-52
2023/06/17 04:27:07;;;;;;;7.03;3.70;;;13.30;99.90;;;;;;5109618;28;20527;-47
2023/06/17 04:29:34;;;;;;;3.90;2.90;;;13.20;99.90;;;;;;5111006;28;20446;-48
2023/06/17 04:32:03;;;;;;;4.77;3.97;;;13.20;99.90;;;;;;5111218;28;20435;-47
2023/06/17 04:34:32;;;;;;;4.30;3.23;;;13.10;99.90;;;;;;5111248;28;20483;-47
2023/06/17 04:36:58;;;;;;;5.37;3.70;;;13.10;99.90;;;;;;5110899;28;20504;-48
2023/06/17 04:39:26;;;;;;;6.07;3.90;;;13.00;99.90;;;;;;5110881;28;20529;-47
2023/06/17 04:41:53;;;;;;;4.30;3.43;;;13.00;99.90;;;;;;5111405;28;20883;-47
2023/06/17 04:44:20;;;;;;;5.57;3.87;;;13.10;99.90;;;;;;5111197;28;20530;-47
2023/06/17 04:46:48;;;;;;;4.10;3.40;;;13.20;99.90;;;;;;5110765;28;20535;-47
2023/06/17 04:49:15;;;;;;;5.13;3.37;;;13.10;99.90;;;;;;5110797;28;20473;-49
2023/06/17 04:51:44;;;;;;;5.50;3.70;;;13.00;99.90;;;;;;5110972;28;20486;-47
2023/06/17 04:54:11;;;;;;;4.60;3.70;;;13.00;99.90;;;;;;5111346;28;20468;-48
2023/06/17 04:56:38;;;;;;;4.13;3.23;;;13.00;99.90;;;;;;5108647;28;20488;-47
2023/06/17 04:59:05;;;;;;;5.77;4.37;;;13.10;99.90;;;;;;5110749;28;20443;-50
2023/06/17 05:01:32;;;;;;;4.60;4.10;;;13.10;99.90;;;;;;5112685;28;20478;-50
2023/06/17 05:03:59;;;;;;;5.10;3.70;;;13.00;99.90;;;;;;5104191;28;20504;-47
2023/06/17 05:06:26;;;;;;;5.10;4.07;;;13.10;99.90;;;;;;5093700;28;20907;-47
2023/06/17 05:08:54;;;;;;;7.73;3.37;;;13.10;99.90;;;;;;5100728;28;20787;-48
2023/06/17 05:11:21;;;;;;;5.60;4.43;;;13.20;99.90;;;;;;5102115;28;20489;-48
2023/06/17 05:13:48;;;;;;;6.43;4.00;;;13.20;99.90;;;;;;5103030;28;20492;-47
2023/06/17 05:16:15;;;;;;;4.30;3.43;;;13.40;99.90;;;;;;5103204;28;20512;-47
2023/06/17 05:18:41;;;;;;;5.13;4.10;;;13.50;99.90;;;;;;5101450;28;20528;-47
2023/06/17 05:21:08;;;;;;;4.60;3.63;;;13.50;99.90;;;;;;5104546;28;20760;-49
2023/06/17 05:23:35;;;;;;;5.30;3.83;;;13.50;99.90;;;;;;5101885;28;20558;-47
2023/06/17 05:26:03;;;;;;;4.93;3.63;;;13.50;99.90;;;;;;5101097;28;20518;-48
2023/06/17 05:28:31;;;;;;;6.77;3.33;;;13.50;99.90;;;;;;5101300;28;20522;-48
2023/06/17 05:30:58;;;;;;;5.63;3.87;;;13.60;99.90;;;;;;5101916;28;20854;-48
2023/06/17 05:33:25;;;;;;;5.10;4.10;;;13.60;99.90;;;;;;5101040;28;20432;-47
2023/06/17 05:35:52;;;;;;;5.60;4.33;;;13.70;99.90;;;;;;5102547;28;20438;-48
2023/06/17 05:38:19;;;;;;;4.67;3.33;;;13.80;99.90;;;;;;5103666;28;20539;-47
2023/06/17 05:40:46;;;;;;;4.50;3.70;;;13.80;99.90;;;;;;5102343;28;20543;-47
2023/06/17 05:43:14;;;;;;;9.80;4.20;;;13.90;99.90;;;;;;5103894;28;20559;-47
2023/06/17 05:45:41;;;;;;;4.17;3.50;;;13.90;99.90;;;;;;5103531;28;20443;-47
2023/06/17 05:48:08;;;;;;;4.30;3.73;;;14.00;99.90;;;;;;5101508;28;20464;-48
2023/06/17 05:50:35;;;;;;;4.90;3.60;;;14.00;99.90;;;;;;5103319;28;20599;-47
2023/06/17 05:53:01;;;;;;;4.77;3.90;;;14.10;99.90;;;;;;5103934;28;20878;-47
2023/06/17 05:55:28;;;;;;;5.90;4.10;;;14.10;99.90;;;;;;5101230;28;20481;-49
2023/06/17 05:57:55;;;;;;;4.60;4.00;;;14.10;99.90;;;;;;5101722;28;20463;-47
2023/06/17 06:00:24;;;;;;;6.50;4.63;;;14.20;99.90;;;;;;5104125;28;20456;-50
2023/06/17 06:02:51;;;;;;;5.10;3.83;;;14.30;99.90;;;;;;5098191;28;20523;-47
2023/06/17 06:05:18;;;;;;;4.70;4.17;;;14.40;99.90;;;;;;5102570;28;20523;-47
2023/06/17 06:07:45;;;;;;;6.33;4.03;;;14.60;99.90;;;;;;5103788;28;20864;-49
2023/06/17 06:10:12;;;;;;;7.53;4.00;;;14.70;99.90;;;;;;5102222;28;20458;-47
2023/06/17 06:12:40;;;;;;;5.77;3.90;;;14.90;99.90;;;;;;5102536;28;20436;-49
2023/06/17 06:15:07;;;;;;;5.23;3.63;;;15.10;99.90;;;;;;5100913;28;20437;-47
2023/06/17 06:17:36;;;;;;;5.30;4.43;;;15.20;99.90;;;;;;5101726;28;20469;-48
2023/06/17 06:20:03;;;;;;;5.80;4.70;;;15.40;99.90;;;;;;5112565;28;20548;-47
2023/06/17 06:22:30;;;;;;;5.10;3.80;;;15.40;99.90;;;;;;5112955;28;20480;-47
2023/06/17 06:24:57;;;;;;;4.50;3.53;;;15.30;99.90;;;;;;5112696;28;20450;-47
2023/06/17 06:27:24;;;;;;;5.00;3.40;;;15.40;99.90;;;;;;5104955;28;20472;-48
2023/06/17 06:29:51;;;;;;;4.60;4.00;;;15.50;99.90;;;;;;5102393;28;20465;-47
2023/06/17 06:32:18;;;;;;;4.57;3.90;;;15.60;99.90;;;;;;5099921;28;20432;-48
2023/06/17 06:34:47;;;;;;;4.80;3.50;;;15.70;99.90;;;;;;5090224;28;20945;-47
2023/06/17 06:37:14;;;;;;;4.87;3.83;;;15.70;99.90;;;;;;5080002;28;20497;-50
2023/06/17 06:39:42;;;;;;;6.00;4.27;;;15.70;99.90;;;;;;5084669;28;20529;-49
2023/06/17 06:42:10;;;;;;;5.10;4.40;;;15.50;99.90;;;;;;5088944;28;20505;-48
2023/06/17 06:44:37;;;;;;;4.33;3.20;;;15.50;99.90;;;;;;5089189;28;20792;-47
2023/06/17 06:47:05;;;;;;;5.30;3.80;;;15.50;99.90;;;;;;5088052;28;20940;-51
2023/06/17 06:49:33;;;;;;;5.33;4.30;;;15.40;99.90;;;;;;5088176;28;20886;-49
2023/06/17 06:52:01;;;;;;;5.27;4.07;;;15.50;99.90;;;;;;5088611;28;20446;-47
2023/06/17 06:54:28;;;;;;;4.40;3.80;;;15.50;99.90;;;;;;5088771;28;20477;-49
2023/06/17 06:56:55;;;;;;;5.60;4.47;;;15.50;99.90;;;;;;5086356;28;20531;-50
2023/06/17 06:59:22;;;;;;;4.90;4.40;;;15.50;99.90;;;;;;5087972;28;20454;-49
2023/06/17 07:01:49;;;;;;;6.93;4.80;;;15.60;99.90;;;;;;5074150;28;21393;-50
2023/06/17 07:04:16;;;;;;;4.63;3.60;;;15.70;99.90;;;;;;5068704;28;20489;-49
2023/06/17 07:06:43;;;;;;;5.00;3.77;;;15.60;99.90;;;;;;5077753;28;20449;-48
2023/06/17 07:09:11;;;;;;;5.90;4.23;;;15.70;99.90;;;;;;5087080;28;20496;-47
2023/06/17 07:11:38;;;;;;;4.90;4.07;;;15.90;99.90;;;;;;5090641;28;20558;-47
2023/06/17 07:14:05;;;;;;;5.73;4.00;;;16.10;99.90;;;;;;5090403;28;20474;-49
2023/06/17 07:16:32;;;;;;;5.73;3.87;;;16.20;99.90;;;;;;5089940;28;20799;-50
2023/06/17 07:18:59;;;;;;;4.10;3.43;;;16.30;99.90;;;;;;5088511;28;20545;-48
2023/06/17 07:21:26;;;;;;;71.37;13.03;;;16.40;99.90;;;;;;5107960;28;20457;-53
2023/06/17 07:23:53;;;;;;;5.70;3.90;;;16.60;99.90;;;;;;5107082;28;20951;-50
2023/06/17 07:26:21;;;;;;;5.30;3.60;;;16.90;99.90;;;;;;5110665;28;20547;-50
2023/06/17 07:28:48;;;;;;;541.37;86.20;;;17.00;99.90;;;;;;5111357;28;20475;-50
2023/06/17 07:31:15;;;;;;;23.23;6.53;;;17.10;99.90;;;;;;5093921;28;20550;-52
2023/06/17 07:33:42;;;;;;;12.43;4.97;;;17.10;99.90;;;;;;5090016;28;20435;-51
2023/06/17 07:36:09;;;;;;;14.70;4.23;;;17.10;99.90;;;;;;5101294;28;20475;-50
2023/06/17 07:38:36;;;;;;;6.03;4.60;;;17.20;99.90;;;;;;5111697;28;20537;-50
2023/06/17 07:41:03;;;;;;;4.90;3.30;;;17.20;99.90;;;;;;5112028;28;20992;-50
2023/06/17 07:43:31;;;;;;;4.17;3.30;;;17.30;99.90;;;;;;5097530;28;20580;-50
2023/06/17 07:45:58;;;;;;;4.80;3.73;;;17.30;99.90;;;;;;5096057;28;20470;-50
2023/06/17 07:48:25;;;;;;;6.23;4.37;;;17.20;99.90;;;;;;5110479;28;21034;-50
2023/06/17 07:50:52;;;;;;;6.30;4.30;;;17.20;99.90;;;;;;5091437;28;20461;-50
2023/06/17 07:53:19;;;;;;;5.33;4.20;;;17.20;99.90;;;;;;5090389;28;20473;-49
2023/06/17 07:55:46;;;;;;;7.03;4.60;;;17.20;99.90;;;;;;5090112;28;21021;-51
2023/06/17 07:58:13;;;;;;;4.80;3.87;;;17.20;99.90;;;;;;5099604;28;20441;-50
2023/06/17 08:00:41;;;;;;;4.87;4.00;;;17.20;99.90;;;;;;5100380;28;20545;-52
2023/06/17 08:03:08;;;;;;;4.37;3.53;;;17.30;99.90;;;;;;5099786;28;20555;-51
2023/06/17 08:05:36;;;;;;;6.43;4.80;;;17.20;99.90;;;;;;5100042;28;20477;-51
2023/06/17 08:08:03;;;;;;;6.73;5.07;;;17.10;99.90;;;;;;5097744;28;20445;-51
2023/06/17 08:10:30;;;;;;;6.53;4.90;;;16.90;99.90;;;;;;5111592;28;20506;-50
2023/06/17 08:12:57;;;;;;;4.97;3.73;;;17.10;99.90;;;;;;5092511;28;20470;-51
2023/06/17 08:15:24;;;;;;;5.67;3.90;;;17.50;99.90;;;;;;5090875;28;20523;-51
2023/06/17 08:17:52;;;;;;;4.00;3.33;;;18.00;99.90;;;;;;5088270;28;20471;-52
2023/06/17 08:20:20;;;;;;;6.03;4.27;;;18.30;99.90;;;;;;5091089;28;20532;-51
2023/06/17 08:22:46;;;;;;;3.57;3.20;;;18.50;99.90;;;;;;5091249;28;20870;-53
2023/06/17 08:25:13;;;;;;;6.37;4.27;;;18.70;99.90;;;;;;5090677;28;20442;-51
2023/06/17 08:27:42;;;;;;;4.93;3.80;;;18.60;99.90;;;;;;5090994;28;21414;-51
2023/06/17 08:30:09;;;;;;;5.63;4.07;;;18.60;99.90;;;;;;5090958;28;20470;-54
2023/06/17 08:32:36;;;;;;;5.60;3.73;;;18.70;99.90;;;;;;5089840;28;20462;-50
2023/06/17 08:35:06;;;;;;;5.70;4.70;;;18.60;99.90;;;;;;5089843;28;20984;-53
2023/06/17 08:37:33;;;;;;;4.57;4.13;;;18.70;99.90;;;;;;5094223;28;20448;-50
2023/06/17 08:40:01;;;;;;;47.97;9.93;;;18.70;99.90;;;;;;5097206;28;20481;-50
2023/06/17 08:42:28;;;;;;;8.93;4.23;;;18.80;99.90;;;;;;5096694;28;20532;-53
2023/06/17 08:44:58;;;;;;;4.63;3.80;;;19.10;99.90;;;;;;5114658;28;20453;-51
2023/06/17 08:47:26;;;;;;;10.87;4.90;;;19.20;99.90;;;;;;5114738;28;20924;-51
2023/06/17 08:49:55;;;;;;;5.33;3.93;;;19.40;99.90;;;;;;5114906;28;20498;-52
2023/06/17 08:52:26;;;;;;;5.37;4.20;;;19.50;99.90;;;;;;5137920;22;20485;-80
2023/06/17 08:54:54;;;;;;;4.77;4.17;;;19.50;99.90;;;;;;5107607;28;20457;-79
2023/06/17 08:57:21;;;;;;;4.97;3.80;;;19.70;99.90;;;;;;5093029;28;20475;-78
2023/06/17 08:59:48;;;;;;;4.53;3.47;;;19.60;99.90;;;;;;5080996;28;20718;-80
2023/06/17 09:02:16;;;;;;;7.57;3.97;;;19.40;99.90;;;;;;5072310;28;20443;-77
2023/06/17 09:04:43;;;;;;;5.27;3.93;;;19.40;99.90;;;;;;5074260;28;20569;-74
2023/06/17 09:07:11;;;;;;;13.60;4.20;;;19.30;99.90;;;;;;5074699;28;20523;-78
2023/06/17 09:09:40;;;;;;;4.83;4.20;;;19.30;99.90;;;;;;5074831;28;20496;-78
2023/06/17 09:12:08;;;;;;;12.57;4.37;;;19.20;99.90;;;;;;5077192;28;20457;-77
2023/06/17 09:14:35;;;;;;;6.47;3.50;;;19.20;99.90;;;;;;5082906;28;20445;-78
2023/06/17 09:17:03;;;;;;;5.27;4.20;;;19.10;99.90;;;;;;5088735;28;20443;-77
2023/06/17 09:19:32;;;;;;;5.23;4.30;;;19.30;99.90;;;;;;5077634;28;20521;-77
2023/06/17 09:22:05;;;;;;;6.33;4.67;;;19.40;99.90;;;;;;5078096;28;20441;-76
2023/06/17 09:24:32;;;;;;;6.50;4.30;;;19.40;99.90;;;;;;5096735;28;20487;-77
2023/06/17 09:27:02;;;;;;;8.57;4.00;;;19.30;99.90;;;;;;5097126;28;20462;-77
2023/06/17 09:29:30;;;;;;;5.53;3.90;;;19.20;99.90;;;;;;5095924;28;20510;-77
2023/06/17 09:31:58;;;;;;;6.73;4.43;;;19.10;99.90;;;;;;5095723;28;20454;-77
2023/06/17 09:34:27;;;;;;;5.70;3.83;;;19.00;99.90;;;;;;5095151;28;20991;-77
2023/06/17 09:36:59;;;;;;;6.93;5.10;;;19.10;99.90;;;;;;5094707;28;20531;-77
2023/06/17 09:39:30;;;;;;;5.70;5.10;;;19.10;99.90;;;;;;5093369;28;20895;-78
2023/06/17 09:41:57;;;;;;;5.53;4.50;;;18.90;99.90;;;;;;5094784;28;20454;-77
2023/06/17 09:44:26;;;;;;;7.33;5.13;;;18.70;99.90;;;;;;5094229;28;21043;-78
2023/06/17 09:46:54;;;;;;;7.80;5.90;;;18.60;99.90;;;;;;5093788;28;20534;-77
2023/06/17 09:49:23;;;;;;;4.03;3.63;;;18.40;99.90;;;;;;5093988;28;20528;-78
2023/06/17 09:51:51;;;;;;;5.80;3.97;;;18.60;99.90;;;;;;5095790;28;20538;-78
2023/06/17 09:54:20;;;;;;;5.80;4.40;;;18.80;99.90;;;;;;5092171;28;20812;-79
2023/06/17 09:56:48;;;;;;;5.10;4.43;;;19.00;99.90;;;;;;5076837;28;20466;-77
2023/06/17 09:59:18;;;;;;;5.60;4.30;;;19.10;99.90;;;;;;5086315;28;20535;-78
2023/06/17 10:01:48;;;;;;;5.90;4.33;;;19.30;99.90;;;;;;5082853;28;20496;-78
2023/06/17 10:04:15;;;;;;;5.50;4.07;;;19.50;99.90;;;;;;5082295;28;20479;-78
2023/06/17 10:06:46;;;;;;;7.30;5.40;;;19.80;99.90;;;;;;5073305;28;20453;-78
2023/06/17 10:09:14;;;;;;;8.03;5.53;;;19.70;99.90;;;;;;5073413;28;20467;-78
2023/06/17 10:11:45;;;;;;;5.87;5.27;;;19.50;99.90;;;;;;5073844;28;20493;-78
2023/06/17 10:14:18;;;;;;;6.53;5.63;;;19.40;99.90;;;;;;5074101;28;21022;-77
2023/06/17 10:16:49;;;;;;;6.27;5.03;;;19.30;99.90;;;;;;5073556;28;20527;-78
2023/06/17 10:19:20;;;;;;;6.60;5.37;;;19.30;99.90;;;;;;5074116;28;20909;-77
2023/06/17 10:21:51;;;;;;;6.50;5.27;;;19.20;99.90;;;;;;5094805;28;20441;-77
2023/06/17 10:24:19;;;;;;;5.07;3.57;;;19.00;99.90;;;;;;5094805;28;20947;-78
2023/06/17 10:26:50;;;;;;;6.60;4.67;;;19.10;99.90;;;;;;5094710;28;20475;-77
2023/06/17 10:29:17;;;;;;;5.80;4.63;;;19.20;99.90;;;;;;5094982;28;20475;-77
2023/06/17 10:31:44;;;;;;;7.40;4.33;;;19.30;99.90;;;;;;5095479;28;20490;-77
2023/06/17 10:34:16;;;;;;;5.50;4.10;;;19.60;99.90;;;;;;5094300;28;20464;-77
2023/06/17 10:36:48;;;;;;;5.90;4.07;;;19.80;99.90;;;;;;5094330;28;20513;-78
2023/06/17 10:39:15;;;;;;;6.07;4.67;;;20.00;99.90;;;;;;5093359;28;20505;-77
2023/06/17 10:41:57;;;;;;;5.60;4.87;;;20.10;99.90;;;;;;5093051;28;20800;-78
2023/06/17 10:44:42;;;;;;;6.00;4.63;;;;;;;;;;5094145;28;20554;-78
2023/06/17 10:47:22;;;;;;;6.90;4.60;;;20.30;99.90;;;;;;5094962;28;20447;-81
2023/06/17 10:49:53;;;;;;;5.57;4.77;;;20.30;99.90;;;;;;5085809;28;20523;-77
2023/06/17 10:52:21;;;;;;;5.53;4.00;;;20.30;99.90;;;;;;5093213;28;20544;-77
2023/06/17 10:54:52;;;;;;;5.17;3.57;;;20.40;99.90;;;;;;5082234;28;20519;-77
2023/06/17 10:57:30;;;;;;;6.27;4.40;;;20.40;99.90;;;;;;5082255;28;20452;-78
2023/06/17 11:00:00;;;;;;;5.40;4.10;;;20.30;99.90;;;;;;5067374;28;20472;-78
2023/06/17 11:02:27;;;;;;;7.80;5.90;;;20.30;99.90;;;;;;5069573;28;20467;-77
2023/06/17 11:04:57;;;;;;;6.07;5.33;;;20.20;99.90;;;;;;5070918;28;20508;-77
2023/06/17 11:07:27;;;;;;;7.60;5.13;;;20.10;99.90;;;;;;5070373;28;20486;-78
2023/06/17 11:09:54;;;;;;;8.13;5.30;;;20.00;99.90;;;;;;5071641;28;21125;-77
2023/06/17 11:12:21;;;;;;;6.20;4.83;;;20.10;99.90;;;;;;5070527;28;20452;-78
2023/06/17 11:14:48;;;;;;;4.83;4.03;;;20.30;99.90;;;;;;5070276;28;20512;-77
2023/06/17 11:17:15;;;;;;;5.70;4.30;;;20.50;99.90;;;;;;5083446;28;20475;-77
2023/06/17 11:19:42;;;;;;;6.27;4.27;;;;;;;;;;5085873;28;20896;-78
2023/06/17 11:22:12;;;;;;;4.40;3.77;;;20.90;99.90;;;;;;5087283;28;20523;-77
2023/06/17 11:24:39;;;;;;;6.20;4.37;;;21.00;99.90;;;;;;5079296;28;20480;-77
2023/06/17 11:27:07;;;;;;;6.97;4.80;;;21.00;99.90;;;;;;5066930;28;20453;-78
2023/06/17 11:29:34;;;;;;;4.37;3.90;;;21.00;99.90;;;;;;5068163;28;20465;-78
2023/06/17 11:32:02;;;;;;;4.90;3.93;;;20.90;99.90;;;;;;5069054;28;20455;-77
2023/06/17 11:34:31;;;;;;;6.40;5.10;;;20.90;99.90;;;;;;5068928;28;20654;-79
2023/06/17 11:37:00;;;;;;;6.13;5.37;;;20.90;99.90;;;;;;5067588;28;21044;-78
2023/06/17 11:39:29;;;;;;;8.33;5.57;;;21.00;99.90;;;;;;5066879;28;20470;-77
2023/06/17 11:42:01;;;;;;;11.53;5.40;;;21.00;99.90;;;;;;5067381;28;20481;-79
2023/06/17 11:44:28;;;;;;;6.00;4.70;;;21.00;99.90;;;;;;5068406;28;20589;-76
2023/06/17 11:46:56;;;;;;;6.00;4.97;;;21.00;99.90;;;;;;5085450;28;20453;-76
2023/06/17 11:49:25;;;;;;;5.53;4.23;;;21.20;99.90;;;;;;5086397;28;20486;-76
2023/06/17 11:51:52;;;;;;;5.20;3.57;;;21.30;99.90;;;;;;5081162;28;20543;-76
2023/06/17 11:54:20;;;;;;;6.00;4.27;;;21.40;99.90;;;;;;5081907;28;20844;-76
2023/06/17 11:56:49;;;;;;;5.70;4.63;;;21.40;99.90;;;;;;5068380;28;20473;-76
2023/06/17 11:59:19;;;;;;;4.87;4.00;;;21.50;99.90;;;;;;5068841;28;20472;-76
2023/06/17 12:01:47;;;;;;;4.40;3.97;;;21.50;99.90;;;;;;5065698;28;20480;-76
2023/06/17 12:04:14;;;;;;;11.03;5.17;;;21.60;99.90;;;;;;5068685;28;20488;-77
2023/06/17 12:06:41;;;;;;;5.77;4.03;;;21.70;98.50;;;;;;5076645;28;20472;-76
2023/06/17 12:09:10;;;;;;;5.17;4.67;;;21.70;99.90;;;;;;5087953;28;20475;-75
2023/06/17 12:11:39;;;;;;;5.53;4.87;;;21.70;98.30;;;;;;5085553;28;21020;-76
2023/06/17 12:14:09;;;;;;;5.50;4.70;;;21.80;99.30;;;;;;5087865;28;20474;-76
2023/06/17 12:16:37;;;;;;;6.20;4.43;;;22.00;99.90;;;;;;5087339;28;20440;-77
2023/06/17 12:19:06;;;;;;;6.50;4.47;;;22.20;98.60;;;;;;5088103;28;21024;-76
2023/06/17 12:21:33;;;;;;;5.77;4.40;;;22.40;97.90;;;;;;5091592;28;20436;-75
2023/06/17 12:24:00;;;;;;;5.70;4.60;;;22.50;98.60;;;;;;5087352;28;20472;-75
2023/06/17 12:26:28;;;;;;;5.10;4.40;;;22.40;98.70;;;;;;5066796;28;20453;-75
2023/06/17 12:28:55;;;;;;;5.80;5.20;;;22.40;98.70;;;;;;5068265;28;20530;-76
2023/06/17 12:31:25;;;;;;;6.13;4.83;;;22.40;98.70;;;;;;5069157;28;20511;-76
2023/06/17 12:33:52;;;;;;;7.00;4.77;;;;;;;;;;5081255;28;20988;-75
2023/06/17 12:36:19;;;;;;;5.93;4.80;;;22.60;96.00;;;;;;5084800;28;21201;-77
2023/06/17 12:38:48;;;;;;;5.40;4.70;;;22.70;96.40;;;;;;5087428;28;20892;-76
2023/06/17 12:41:17;;;;;;;5.73;4.40;;;22.70;97.20;;;;;;5087617;28;20447;-77
2023/06/17 12:43:44;;;;;;;5.80;5.13;;;;;;;;;;5088325;28;20464;-75
2023/06/17 12:46:11;;;;;;;6.03;4.90;;;22.50;94.90;;;;;;5087272;28;20461;-76
2023/06/17 12:48:41;;;;;;;10.30;4.97;;;22.60;93.50;;;;;;5087337;28;20507;-76
2023/06/17 12:51:08;;;;;;;6.27;4.43;;;22.70;97.00;;;;;;5087320;28;20550;-77